createdAt,value
2023-04-12T00:01:06.316Z,6.80
2023-04-12T00:03:36.566Z,6.80
2023-04-12T00:06:04.132Z,6.80
2023-04-12T00:08:33.799Z,6.80
2023-04-12T00:11:02.868Z,6.80
2023-04-12T00:13:31.161Z,6.80
2023-04-12T00:15:58.479Z,6.80
2023-04-12T00:18:26.190Z,6.80
2023-04-12T00:20:55.683Z,6.80
2023-04-12T00:23:22.939Z,6.80
2023-04-12T00:25:50.730Z,6.80
2023-04-12T00:28:18.164Z,6.70
2023-04-12T00:30:46.188Z,6.70
2023-04-12T00:33:13.511Z,6.70
2023-04-12T00:35:40.955Z,6.70
2023-04-12T00:38:10.835Z,6.70
2023-04-12T00:40:42.963Z,6.80
2023-04-12T00:43:18.750Z,6.80
2023-04-12T00:45:47.251Z,6.80
2023-04-12T00:48:16.468Z,6.80
2023-04-12T00:50:46.736Z,6.80
2023-04-12T00:53:14.759Z,6.80
2023-04-12T00:55:44.981Z,6.80
2023-04-12T00:58:14.090Z,6.80
2023-04-12T01:00:41.877Z,6.80
2023-04-12T01:03:09.414Z,6.80
2023-04-12T01:05:46.818Z,6.90
2023-04-12T01:08:35.854Z,6.90
2023-04-12T01:11:17.403Z,6.90
2023-04-12T01:13:53.023Z,6.80
2023-04-12T01:16:34.362Z,6.90
2023-04-12T01:19:12.906Z,6.80
2023-04-12T01:21:53.212Z,6.80
2023-04-12T01:24:31.406Z,6.90
2023-04-12T01:27:01.895Z,6.80
2023-04-12T01:29:31.533Z,6.80
2023-04-12T01:32:05.058Z,6.90
2023-04-12T01:34:35.653Z,6.90
2023-04-12T01:37:03.813Z,6.90
2023-04-12T01:39:33.405Z,6.90
2023-04-12T01:42:00.999Z,6.90
2023-04-12T01:44:29.051Z,6.90
2023-04-12T01:46:57.229Z,7.00
2023-04-12T01:49:33.414Z,7.00
2023-04-12T01:52:17.551Z,7.00
2023-04-12T01:54:47.752Z,7.00
2023-04-12T01:57:16.033Z,7.00
2023-04-12T01:59:45.465Z,7.00
2023-04-12T02:02:13.822Z,7.00
2023-04-12T02:04:42.461Z,7.00
2023-04-12T02:07:09.956Z,7.00
2023-04-12T02:09:41.332Z,7.00
2023-04-12T02:12:09.666Z,7.10
2023-04-12T02:14:37.063Z,7.10
2023-04-12T02:17:05.618Z,7.10
2023-04-12T02:19:33.528Z,7.10
2023-04-12T02:22:02.379Z,7.20
2023-04-12T02:24:30.091Z,7.20
2023-04-12T02:26:59.271Z,7.20
2023-04-12T02:29:27.560Z,7.30
2023-04-12T02:31:54.890Z,7.30
2023-04-12T02:34:24.896Z,7.30
2023-04-12T02:36:59.793Z,7.40
2023-04-12T02:39:29.337Z,7.40
2023-04-12T02:41:58.331Z,7.40
2023-04-12T02:44:26.106Z,7.40
2023-04-12T02:47:09.620Z,7.50
2023-04-12T02:49:37.066Z,7.50
2023-04-12T02:52:05.112Z,7.60
2023-04-12T02:54:40.374Z,7.60
2023-04-12T02:57:12.954Z,7.60
2023-04-12T02:59:44.421Z,7.60
2023-04-12T03:02:24.669Z,7.60
2023-04-12T03:04:57.093Z,7.60
2023-04-12T03:07:32.067Z,7.60
2023-04-12T03:09:59.508Z,7.60
2023-04-12T03:12:26.698Z,7.50
2023-04-12T03:15:08.884Z,7.50
2023-04-12T03:17:36.404Z,7.50
2023-04-12T03:20:10.309Z,7.50
2023-04-12T03:22:41.273Z,7.50
2023-04-12T03:25:11.334Z,7.60
2023-04-12T03:27:42.874Z,7.50
2023-04-12T03:30:12.719Z,7.60
2023-04-12T03:32:42.501Z,7.60
2023-04-12T03:35:11.459Z,7.60
2023-04-12T03:37:43.169Z,7.60
2023-04-12T03:40:12.266Z,7.60
2023-04-12T03:42:43.674Z,7.60
2023-04-12T03:45:13.019Z,7.60
2023-04-12T03:47:43.598Z,7.60
2023-04-12T03:50:12.544Z,7.60
2023-04-12T03:52:45.686Z,7.60
2023-04-12T03:55:13.712Z,7.50
2023-04-12T03:57:42.127Z,7.50
2023-04-12T04:00:10.499Z,7.60
2023-04-12T04:03:03.416Z,7.50
2023-04-12T04:05:34.522Z,7.50
2023-04-12T04:08:02.682Z,7.50
2023-04-12T04:10:37.251Z,7.50
2023-04-12T04:13:04.549Z,7.50
2023-04-12T04:15:32.791Z,7.50
2023-04-12T04:18:01.244Z,7.40
2023-04-12T04:20:28.949Z,7.40
2023-04-12T04:22:56.214Z,7.40
2023-04-12T04:25:30.016Z,7.40
2023-04-12T04:28:02.836Z,7.40
2023-04-12T04:30:34.401Z,7.50
2023-04-12T04:33:03.374Z,7.40
2023-04-12T04:35:31.681Z,7.40
2023-04-12T04:38:20.324Z,7.50
2023-04-12T04:40:53.428Z,7.50
2023-04-12T04:43:23.977Z,7.50
2023-04-12T04:45:55.712Z,7.50
2023-04-12T04:48:24.103Z,7.60
2023-04-12T04:50:54.395Z,7.60
2023-04-12T04:53:23.064Z,7.70
2023-04-12T04:55:57.984Z,7.70
2023-04-12T04:58:27.935Z,7.80
2023-04-12T05:00:59.826Z,7.80
2023-04-12T05:03:31.011Z,7.80
2023-04-12T05:06:01.847Z,7.80
2023-04-12T05:08:29.974Z,7.90
2023-04-12T05:10:57.708Z,7.90
2023-04-12T05:13:28.998Z,8.00
2023-04-12T05:15:56.302Z,8.00
2023-04-12T05:18:23.594Z,8.00
2023-04-12T05:20:51.145Z,8.10
2023-04-12T05:23:18.688Z,8.10
2023-04-12T05:25:48.284Z,8.10
2023-04-12T05:28:17.576Z,8.20
2023-04-12T05:30:46.478Z,8.20
2023-04-12T05:33:17.845Z,8.20
2023-04-12T05:35:47.051Z,8.30
2023-04-12T05:38:14.331Z,8.30
2023-04-12T05:40:44.376Z,8.30
2023-04-12T05:43:14.544Z,8.40
2023-04-12T05:45:42.105Z,8.50
2023-04-12T05:48:10.419Z,8.50
2023-04-12T05:50:38.048Z,8.60
2023-04-12T05:53:06.076Z,8.70
2023-04-12T05:55:37.263Z,8.80
2023-04-12T05:58:06.282Z,8.80
2023-04-12T06:00:33.794Z,8.80
2023-04-12T06:03:01.161Z,8.80
2023-04-12T06:05:28.654Z,8.80
2023-04-12T06:07:55.973Z,8.90
2023-04-12T06:10:23.244Z,8.90
2023-04-12T06:12:53.586Z,8.90
2023-04-12T06:15:23.621Z,9.00
2023-04-12T06:17:54.099Z,9.00
2023-04-12T06:20:21.478Z,9.00
2023-04-12T06:22:48.997Z,8.90
2023-04-12T06:25:17.938Z,9.00
2023-04-12T06:27:47.169Z,9.00
2023-04-12T06:30:16.780Z,9.00
2023-04-12T06:32:44.461Z,9.10
2023-04-12T06:35:11.917Z,9.00
2023-04-12T06:37:39.436Z,9.00
2023-04-12T06:40:07.527Z,9.00
2023-04-12T06:42:34.922Z,9.10
2023-04-12T06:45:02.354Z,9.20
2023-04-12T06:47:30.874Z,9.30
2023-04-12T06:49:58.501Z,9.30
2023-04-12T06:52:26.814Z,9.30
2023-04-12T06:54:56.170Z,9.30
2023-04-12T06:57:23.849Z,9.40
2023-04-12T06:59:52.331Z,9.50
2023-04-12T07:02:19.740Z,9.50
2023-04-12T07:04:47.496Z,9.50
2023-04-12T07:07:14.716Z,9.50
2023-04-12T07:09:43.145Z,9.30
2023-04-12T07:12:10.468Z,9.20
2023-04-12T07:14:37.716Z,9.10
2023-04-12T07:17:05.062Z,9.10
2023-04-12T07:19:32.410Z,9.10
2023-04-12T07:21:59.693Z,9.20
2023-04-12T07:24:26.916Z,9.10
2023-04-12T07:26:57.271Z,9.00
2023-04-12T07:29:24.563Z,8.90
2023-04-12T07:31:51.861Z,9.10
2023-04-12T07:34:19.251Z,9.20
2023-04-12T07:36:46.586Z,9.20
2023-04-12T07:39:14.514Z,9.30
2023-04-12T07:41:46.389Z,9.50
2023-04-12T07:44:13.776Z,9.50
2023-04-12T07:46:42.112Z,9.60
2023-04-12T07:49:10.745Z,9.60
2023-04-12T07:51:38.606Z,9.70
2023-04-12T07:54:05.988Z,9.70
2023-04-12T07:56:34.788Z,9.80
2023-04-12T07:59:02.234Z,9.70
2023-04-12T08:01:30.401Z,9.80
2023-04-12T08:03:58.395Z,9.90
2023-04-12T08:06:30.572Z,10.10
2023-04-12T08:08:59.034Z,10.00
2023-04-12T08:11:26.277Z,10.40
2023-04-12T08:13:53.647Z,10.70
2023-04-12T08:16:21.144Z,10.90
2023-04-12T08:18:48.766Z,11.00
2023-04-12T08:21:16.018Z,11.00
2023-04-12T08:23:43.305Z,10.90
2023-04-12T08:26:10.708Z,10.70
2023-04-12T08:28:39.694Z,10.80
2023-04-12T08:31:08.392Z,10.60
2023-04-12T08:33:35.886Z,10.80
2023-04-12T08:36:03.840Z,10.60
2023-04-12T08:38:44.851Z,10.50
2023-04-12T08:41:14.818Z,10.60
2023-04-12T08:43:47.850Z,10.60
2023-04-12T08:46:16.072Z,10.60
2023-04-12T08:48:51.046Z,10.50
2023-04-12T08:51:20.441Z,10.60
2023-04-12T08:53:48.583Z,10.70
2023-04-12T08:56:16.724Z,10.50
2023-04-12T08:58:49.280Z,10.60
2023-04-12T09:01:17.917Z,10.70
2023-04-12T09:03:47.051Z,10.60
2023-04-12T09:06:14.460Z,10.60
2023-04-12T09:08:55.699Z,10.60
2023-04-12T09:11:27.927Z,10.80
2023-04-12T09:13:56.305Z,10.90
2023-04-12T09:16:36.024Z,10.90
2023-04-12T09:19:03.727Z,11.00
2023-04-12T09:21:34.750Z,10.90
2023-04-12T09:24:11.787Z,10.80
2023-04-12T09:26:40.320Z,10.70
2023-04-12T09:29:27.620Z,10.60
2023-04-12T09:31:56.559Z,10.50
2023-04-12T09:34:24.725Z,10.40
2023-04-12T09:36:53.949Z,10.30
2023-04-12T09:39:30.543Z,10.30
2023-04-12T09:42:29.823Z,10.40
2023-04-12T09:45:01.889Z,10.40
2023-04-12T09:47:40.294Z,10.40
2023-04-12T09:50:09.843Z,10.40
2023-04-12T09:52:41.183Z,10.30
2023-04-12T09:55:11.046Z,10.30
2023-04-12T09:57:43.367Z,10.40
2023-04-12T10:00:17.889Z,10.50
2023-04-12T10:02:48.668Z,10.60
2023-04-12T10:05:18.865Z,10.60
2023-04-12T10:07:47.849Z,10.60
2023-04-12T10:10:17.462Z,10.60
2023-04-12T10:12:47.026Z,10.60
2023-04-12T10:15:18.624Z,10.80
2023-04-12T10:17:53.035Z,10.90
2023-04-12T10:20:21.917Z,11.10
2023-04-12T10:22:51.624Z,11.40
2023-04-12T10:25:21.802Z,11.70
2023-04-12T10:27:49.931Z,12.00
2023-04-12T10:30:31.388Z,12.30
2023-04-12T10:33:05.261Z,12.50
2023-04-12T10:35:56.668Z,12.50
2023-04-12T10:38:26.945Z,12.70
2023-04-12T10:41:19.893Z,12.70
2023-04-12T10:43:47.695Z,12.50
2023-04-12T10:46:39.573Z,12.50
2023-04-12T10:49:17.287Z,12.70
2023-04-12T10:52:03.026Z,12.90
2023-04-12T10:54:31.248Z,13.20
2023-04-12T10:56:58.700Z,13.30
2023-04-12T10:59:51.981Z,13.60
2023-04-12T11:02:19.433Z,13.80
2023-04-12T11:05:10.023Z,13.70
2023-04-12T11:07:56.237Z,13.50
2023-04-12T11:10:42.076Z,13.20
2023-04-12T11:17:06.959Z,12.90
2023-04-12T11:19:38.882Z,12.70
2023-04-12T11:22:07.722Z,12.50
2023-04-12T11:24:43.848Z,12.00
2023-04-12T11:27:12.001Z,11.90
2023-04-12T11:29:39.390Z,12.00
2023-04-12T11:32:10.312Z,12.00
2023-04-12T11:34:37.650Z,12.10
2023-04-12T11:37:08.485Z,12.20
2023-04-12T11:39:42.139Z,12.10
2023-04-12T11:42:20.992Z,11.60
2023-04-12T11:44:57.703Z,11.60
2023-04-12T11:47:27.645Z,11.60
2023-04-12T11:49:59.216Z,11.70
2023-04-12T11:52:31.234Z,11.80
2023-04-12T11:55:02.501Z,11.70
2023-04-12T11:57:31.227Z,11.90
2023-04-12T12:00:00.350Z,12.10
2023-04-12T12:02:33.055Z,12.10
2023-04-12T12:05:03.025Z,12.20
2023-04-12T12:07:30.880Z,12.10
2023-04-12T12:09:58.734Z,12.20
2023-04-12T12:12:27.312Z,12.00
2023-04-12T12:15:00.455Z,11.90
2023-04-12T12:17:28.212Z,11.80
2023-04-12T12:19:57.623Z,12.00
2023-04-12T12:22:24.988Z,12.20
2023-04-12T12:24:53.455Z,12.10
2023-04-12T12:27:23.359Z,12.10
2023-04-12T12:29:55.491Z,12.10
2023-04-12T12:32:23.744Z,12.00
2023-04-12T12:34:53.404Z,12.10
2023-04-12T12:37:25.606Z,12.20
2023-04-12T12:40:13.929Z,12.50
2023-04-12T12:42:45.885Z,12.80
2023-04-12T12:45:14.220Z,13.10
2023-04-12T12:47:55.058Z,13.50
2023-04-12T12:50:25.344Z,13.60
2023-04-12T12:52:53.595Z,13.40
2023-04-12T12:55:21.774Z,13.40
2023-04-12T12:58:06.028Z,13.40
2023-04-12T13:00:35.533Z,13.30
2023-04-12T13:03:03.580Z,13.10
2023-04-12T13:05:31.196Z,13.20
2023-04-12T13:07:58.432Z,13.10
2023-04-12T13:10:27.270Z,12.90
2023-04-12T13:12:54.534Z,13.00
2023-04-12T13:15:24.137Z,13.00
2023-04-12T13:17:53.008Z,13.10
2023-04-12T13:20:21.209Z,13.20
2023-04-12T13:22:48.737Z,13.10
2023-04-12T13:25:15.989Z,13.30
2023-04-12T13:27:43.217Z,13.40
2023-04-12T13:30:10.753Z,13.20
2023-04-12T13:32:38.244Z,13.10
2023-04-12T13:35:06.486Z,13.00
2023-04-12T13:37:34.340Z,12.90
2023-04-12T13:40:01.653Z,13.00
2023-04-12T13:42:28.952Z,12.80
2023-04-12T13:44:57.032Z,13.10
2023-04-12T13:47:24.448Z,13.30
2023-04-12T13:49:51.864Z,14.30
2023-04-12T13:52:19.113Z,15.40
2023-04-12T13:54:46.710Z,16.00
2023-04-12T13:57:13.960Z,15.90
2023-04-12T13:59:41.500Z,16.00
2023-04-12T14:02:08.950Z,15.70
2023-04-12T14:04:36.369Z,15.30
2023-04-12T14:07:03.649Z,15.00
2023-04-12T14:09:32.377Z,14.90
2023-04-12T14:12:01.669Z,14.60
2023-04-12T14:14:28.999Z,14.50
2023-04-12T14:16:57.893Z,14.20
2023-04-12T14:19:26.010Z,14.00
2023-04-12T14:21:54.537Z,13.80
2023-04-12T14:24:22.338Z,13.70
2023-04-12T14:26:53.489Z,13.50
2023-04-12T14:29:21.248Z,13.50
2023-04-12T14:31:48.571Z,13.50
2023-04-12T14:34:15.903Z,13.30
2023-04-12T14:36:43.089Z,13.20
2023-04-12T14:39:13.273Z,13.10
2023-04-12T14:41:41.512Z,13.00
2023-04-12T14:44:08.818Z,12.90
2023-04-12T14:46:36.426Z,12.90
2023-04-12T14:49:03.827Z,13.00
2023-04-12T14:51:33.230Z,13.10
2023-04-12T14:54:00.821Z,13.30
2023-04-12T14:56:30.486Z,13.70
2023-04-12T14:58:58.925Z,13.90
2023-04-12T15:01:27.192Z,14.50
2023-04-12T15:03:54.777Z,15.50
2023-04-12T15:06:30.505Z,17.30
2023-04-12T15:08:57.766Z,18.20
2023-04-12T15:11:26.980Z,18.00
2023-04-12T15:13:55.396Z,17.40
2023-04-12T15:16:23.385Z,16.80
2023-04-12T15:18:51.740Z,16.50
2023-04-12T15:21:19.416Z,16.50
2023-04-12T15:23:47.472Z,16.40
2023-04-12T15:26:14.884Z,16.20
2023-04-12T15:28:42.804Z,15.80
2023-04-12T15:31:12.057Z,15.70
2023-04-12T15:33:39.559Z,15.70
2023-04-12T15:36:07.208Z,15.90
2023-04-12T15:38:42.121Z,16.20
2023-04-12T15:41:09.649Z,16.20
2023-04-12T15:43:37.324Z,16.40
2023-04-12T15:46:04.931Z,16.20
2023-04-12T15:48:32.447Z,15.90
2023-04-12T15:51:00.259Z,15.80
2023-04-12T15:53:27.738Z,15.70
2023-04-12T15:55:55.374Z,15.80
2023-04-12T15:58:27.346Z,15.60
2023-04-12T16:00:54.830Z,15.50
2023-04-12T16:03:26.561Z,15.40
2023-04-12T16:05:54.445Z,15.20
2023-04-12T16:08:22.798Z,15.30
2023-04-12T16:10:50.878Z,15.20
2023-04-12T16:13:18.723Z,15.10
2023-04-12T16:15:47.150Z,15.10
2023-04-12T16:18:17.370Z,15.10
2023-04-12T16:20:45.385Z,15.00
2023-04-12T16:23:13.573Z,15.10
2023-04-12T16:25:40.888Z,15.20
2023-04-12T16:28:08.263Z,15.10
2023-04-12T16:30:36.097Z,15.10
2023-04-12T16:33:03.430Z,14.90
2023-04-12T16:35:30.980Z,14.60
2023-04-12T16:37:58.279Z,14.30
2023-04-12T16:40:26.013Z,14.20
2023-04-12T16:42:53.265Z,14.00
2023-04-12T16:45:21.761Z,13.90
2023-04-12T16:47:49.016Z,13.80
2023-04-12T16:50:16.659Z,13.60
2023-04-12T16:52:44.189Z,13.50
2023-04-12T16:55:12.314Z,13.40
2023-04-12T16:57:41.562Z,13.30
2023-04-12T17:00:23.822Z,13.20
2023-04-12T17:02:52.752Z,13.00
2023-04-12T17:05:21.587Z,12.80
2023-04-12T17:07:54.404Z,12.60
2023-04-12T17:10:23.083Z,12.50
2023-04-12T17:12:52.748Z,12.40
2023-04-12T17:15:21.085Z,12.20
2023-04-12T17:17:50.922Z,12.10
2023-04-12T17:20:20.081Z,11.90
2023-04-12T17:22:48.160Z,11.90
2023-04-12T17:25:16.442Z,11.90
2023-04-12T17:27:45.161Z,11.90
2023-04-12T17:30:13.876Z,12.50
2023-04-12T17:32:41.570Z,13.90
2023-04-12T17:35:09.302Z,15.20
2023-04-12T17:37:37.141Z,16.00
2023-04-12T17:40:05.561Z,17.00
2023-04-12T17:42:33.051Z,17.00
2023-04-12T17:45:00.339Z,16.20
2023-04-12T17:47:27.694Z,15.00
2023-04-12T17:49:54.998Z,14.60
2023-04-12T17:52:22.334Z,13.80
2023-04-12T17:54:49.601Z,13.30
2023-04-12T17:57:16.961Z,12.90
2023-04-12T17:59:44.292Z,12.70
2023-04-12T18:02:11.909Z,12.40
2023-04-12T18:04:41.255Z,12.00
2023-04-12T18:07:11.428Z,11.80
2023-04-12T18:09:38.790Z,11.60
2023-04-12T18:12:06.344Z,11.40
2023-04-12T18:14:33.573Z,11.30
2023-04-12T18:17:00.830Z,11.30
2023-04-12T18:19:28.047Z,11.20
2023-04-12T18:21:55.347Z,11.20
2023-04-12T18:24:22.597Z,11.00
2023-04-12T18:26:49.815Z,10.90
2023-04-12T18:29:17.716Z,10.90
2023-04-12T18:31:45.083Z,10.80
2023-04-12T18:34:12.594Z,10.80
2023-04-12T18:36:40.068Z,10.70
2023-04-12T18:39:08.131Z,10.70
2023-04-12T18:41:35.921Z,10.60
2023-04-12T18:44:03.638Z,10.60
2023-04-12T18:46:31.033Z,10.60
2023-04-12T18:48:58.746Z,10.50
2023-04-12T18:51:26.441Z,10.40
2023-04-12T18:53:53.877Z,10.40
2023-04-12T18:56:24.553Z,10.40
2023-04-12T18:58:55.542Z,10.40
2023-04-12T19:01:25.282Z,10.30
2023-04-12T19:03:52.933Z,10.30
2023-04-12T19:06:20.374Z,10.20
2023-04-12T19:08:48.451Z,10.20
2023-04-12T19:11:15.942Z,10.30
2023-04-12T19:13:43.232Z,10.20
2023-04-12T19:16:11.215Z,10.20
2023-04-12T19:18:38.637Z,10.10
2023-04-12T19:21:06.633Z,10.10
2023-04-12T19:23:34.702Z,10.00
2023-04-12T19:26:02.275Z,10.00
2023-04-12T19:28:29.670Z,10.00
2023-04-12T19:30:59.925Z,10.00
2023-04-12T19:33:27.507Z,10.00
2023-04-12T19:35:56.402Z,10.00
2023-04-12T19:38:23.824Z,9.90
2023-04-12T19:40:51.636Z,9.90
2023-04-12T19:43:19.698Z,9.80
2023-04-12T19:45:47.357Z,9.80
2023-04-12T19:48:14.679Z,9.80
2023-04-12T19:50:43.261Z,9.80
2023-04-12T19:53:12.656Z,9.70
2023-04-12T19:55:42.640Z,9.80
2023-04-12T19:58:10.406Z,9.80
2023-04-12T20:00:40.067Z,9.80
2023-04-12T20:03:09.694Z,9.80
2023-04-12T20:05:38.005Z,9.80
2023-04-12T20:08:05.681Z,9.80
2023-04-12T20:10:33.098Z,9.70
2023-04-12T20:13:00.315Z,9.70
2023-04-12T20:15:27.761Z,9.70
2023-04-12T20:17:55.275Z,9.60
2023-04-12T20:20:22.937Z,9.60
2023-04-12T20:22:53.035Z,9.60
2023-04-12T20:25:20.690Z,9.70
2023-04-12T20:27:52.048Z,9.70
2023-04-12T20:30:21.236Z,9.60
2023-04-12T20:32:49.476Z,9.60
2023-04-12T20:35:19.088Z,9.50
2023-04-12T20:37:50.482Z,9.50
2023-04-12T20:40:19.772Z,9.50
2023-04-12T20:42:48.110Z,9.40
2023-04-12T20:45:18.136Z,9.40
2023-04-12T20:47:45.718Z,9.30
2023-04-12T20:50:13.041Z,9.30
2023-04-12T20:52:40.442Z,9.30
2023-04-12T20:55:08.043Z,9.20
2023-04-12T20:57:35.273Z,9.10
2023-04-12T21:00:12.392Z,9.10
2023-04-12T21:02:40.737Z,9.10
2023-04-12T21:05:08.282Z,9.10
2023-04-12T21:07:36.474Z,9.10
2023-04-12T21:10:03.970Z,9.20
2023-04-12T21:12:35.558Z,9.20
2023-04-12T21:15:03.423Z,9.30
2023-04-12T21:17:30.724Z,9.20
2023-04-12T21:19:58.361Z,9.20
2023-04-12T21:22:25.758Z,9.20
2023-04-12T21:24:53.429Z,9.20
2023-04-12T21:27:20.853Z,9.20
2023-04-12T21:29:48.121Z,9.20
2023-04-12T21:32:15.346Z,9.20
2023-04-12T21:34:43.120Z,9.10
2023-04-12T21:37:11.006Z,9.10
2023-04-12T21:39:39.383Z,9.10
2023-04-12T21:42:06.783Z,9.10
2023-04-12T21:44:34.451Z,9.10
2023-04-12T21:47:01.723Z,9.10
2023-04-12T21:49:30.370Z,9.10
2023-04-12T21:51:59.249Z,9.10
2023-04-12T21:54:29.093Z,9.10
2023-04-12T21:56:57.449Z,9.10
2023-04-12T21:59:26.431Z,9.10
2023-04-12T22:01:53.689Z,9.10
2023-04-12T22:04:21.028Z,9.10
2023-04-12T22:06:50.874Z,9.10
2023-04-12T22:09:18.748Z,9.10
2023-04-12T22:11:46.652Z,9.10
2023-04-12T22:14:13.833Z,9.00
2023-04-12T22:16:41.976Z,9.00
2023-04-12T22:19:09.446Z,9.10
2023-04-12T22:21:37.361Z,9.00
2023-04-12T22:24:04.629Z,9.00
2023-04-12T22:26:31.776Z,9.00
2023-04-12T22:28:59.112Z,9.00
2023-04-12T22:31:26.451Z,9.00
2023-04-12T22:33:55.303Z,8.90
2023-04-12T22:36:28.514Z,9.00
2023-04-12T22:38:56.634Z,9.00
2023-04-12T22:41:23.915Z,8.90
2023-04-12T22:44:01.417Z,8.90
2023-04-12T22:46:32.473Z,9.00
2023-04-12T22:49:03.396Z,8.90
2023-04-12T22:51:31.754Z,8.90
2023-04-12T22:53:59.356Z,8.90
2023-04-12T22:56:27.248Z,8.90
2023-04-12T22:58:55.806Z,8.90
2023-04-12T23:01:23.133Z,8.90
2023-04-12T23:03:50.807Z,8.90
2023-04-12T23:06:19.754Z,8.90
2023-04-12T23:08:47.063Z,8.90
2023-04-12T23:11:14.520Z,8.90
2023-04-12T23:13:44.712Z,8.90
2023-04-12T23:16:12.019Z,8.90
2023-04-12T23:18:39.380Z,8.90
2023-04-12T23:21:07.050Z,8.90
2023-04-12T23:23:34.285Z,8.80
2023-04-12T23:26:01.513Z,8.80
2023-04-12T23:28:28.938Z,8.80
2023-04-12T23:30:57.796Z,8.80
2023-04-12T23:33:25.488Z,8.80
2023-04-12T23:35:53.303Z,8.80
2023-04-12T23:38:26.146Z,8.80
2023-04-12T23:40:56.315Z,8.70
2023-04-12T23:43:25.097Z,8.70
2023-04-12T23:45:52.872Z,8.80
2023-04-12T23:48:20.279Z,8.80
2023-04-12T23:50:48.457Z,8.80
2023-04-12T23:53:16.887Z,8.70
2023-04-12T23:55:48.264Z,8.70
2023-04-12T23:58:16.952Z,8.70
